Time;durP1;ratioP1;P1;durP2;ratioP2;P2;SDS_P1;SDS_P2;PMS_P1;PMS_P2;Temp;Humidity;BMP_temperature;BMP_pressure;BME280_temperature;BME280_humidity;BME280_pressure;Samples;Min_cycle;Max_cycle;Signal;HPM_P1;HPM_P2
2022/12/27 00:01:50;;;;;;;16.30;3.83;;;;;;;4.09;56.20;101075.56;6211077;23;20529;-72
2022/12/27 00:04:16;;;;;;;21.60;3.03;;;;;;;3.83;56.44;101080.91;6210632;23;20047;-71
2022/12/27 00:06:43;;;;;;;20.90;2.80;;;;;;;3.91;56.17;101082.19;6209953;23;20028;-71
2022/12/27 00:09:09;;;;;;;16.38;2.10;;;;;;;3.71;56.47;101084.41;6212178;23;20028;-71
2022/12/27 00:11:37;;;;;;;17.35;2.55;;;;;;;3.44;56.96;101088.97;6211442;23;20353;-72
2022/12/27 00:14:05;;;;;;;15.32;2.25;;;;;;;3.29;58.00;101094.38;6211454;23;20017;-71
2022/12/27 00:16:33;;;;;;;20.35;1.98;;;;;;;3.30;58.13;101103.19;6212185;23;20024;-71
2022/12/27 00:18:59;;;;;;;21.27;5.72;;;;;;;3.41;58.12;101105.09;6206765;23;20377;-72
2022/12/27 00:21:26;;;;;;;12.05;2.13;;;;;;;3.46;58.22;101105.66;6211409;23;20107;-72
2022/12/27 00:23:54;;;;;;;14.35;2.75;;;;;;;3.32;58.29;101119.84;6211668;23;20029;-72
2022/12/27 00:26:30;;;;;;;20.65;2.50;;;;;;;3.46;58.23;101116.25;6211440;23;20027;-72
2022/12/27 00:28:57;;;;;;;17.50;2.08;;;;;;;3.39;58.77;101127.28;6211071;23;20021;-72
2022/12/27 00:31:25;;;;;;;17.38;2.20;;;;;;;3.30;58.30;101119.94;6206311;23;20038;-73
2022/12/27 00:33:54;;;;;;;15.48;2.63;;;;;;;3.35;57.83;101109.88;6210224;23;20024;-72
2022/12/27 00:36:23;;;;;;;16.20;2.10;;;;;;;3.33;58.08;101116.22;6211708;23;20021;-72
2022/12/27 00:38:51;;;;;;;20.85;2.33;;;;;;;3.23;58.20;101121.28;6211825;23;20020;-73
2022/12/27 00:41:18;;;;;;;11.48;1.80;;;;;;;3.27;58.43;101122.78;6211527;23;20075;-72
2022/12/27 00:43:45;;;;;;;20.38;3.15;;;;;;;3.28;58.24;101111.25;6211139;23;20027;-72
2022/12/27 00:46:13;;;;;;;13.07;2.13;;;;;;;3.20;58.93;101116.19;6211470;23;20020;-72
2022/12/27 00:48:40;;;;;;;17.38;1.85;;;;;;;3.17;58.44;101116.44;6212067;23;20028;-72
2022/12/27 00:51:12;;;;;;;17.40;2.60;;;;;;;3.15;58.82;101118.31;6209667;23;20103;-71
2022/12/27 00:53:38;;;;;;;18.02;2.25;;;;;;;3.02;58.91;101117.44;6210639;23;20016;-72
2022/12/27 00:56:10;;;;;;;18.08;1.83;;;;;;;3.06;58.91;101127.72;6211046;23;20020;-71
2022/12/27 00:58:37;;;;;;;14.05;2.53;;;;;;;3.04;59.08;101139.41;6209949;23;20104;-72
2022/12/27 01:01:08;;;;;;;25.02;2.53;;;;;;;2.90;59.42;101140.31;6210250;23;20091;-71
2022/12/27 01:03:35;;;;;;;14.65;1.75;;;;;;;2.62;60.42;101133.31;6210405;23;20033;-70
2022/12/27 01:06:04;;;;;;;22.13;2.75;;;;;;;2.86;59.76;101139.66;6211813;23;20031;-71
2022/12/27 01:08:31;;;;;;;20.77;2.30;;;;;;;2.62;61.13;101138.59;6209220;23;20013;-71
2022/12/27 01:10:58;;;;;;;13.45;1.98;;;;;;;2.61;61.38;101142.16;6204603;23;20024;-72
2022/12/27 01:13:24;;;;;;;18.58;2.72;;;;;;;2.60;60.64;101143.97;6210936;23;20095;-72
2022/12/27 01:15:51;;;;;;;14.25;2.55;;;;;;;2.46;61.61;101149.31;6210827;23;20096;-72
2022/12/27 01:18:17;;;;;;;12.73;1.80;;;;;;;2.70;60.90;101156.66;6195677;23;20108;-72
2022/12/27 01:20:44;;;;;;;24.65;2.50;;;;;;;2.67;61.58;101165.63;6210484;23;20027;-71
2022/12/27 01:23:10;;;;;;;16.45;2.10;;;;;;;2.54;61.89;101162.91;6210302;23;20055;-72
2022/12/27 01:25:37;;;;;;;25.70;2.58;;;;;;;2.62;61.62;101168.59;6210462;23;20099;-72
2022/12/27 01:28:04;;;;;;;11.13;2.03;;;;;;;2.53;62.12;101179.75;6210938;23;20027;-71
2022/12/27 01:30:30;;;;;;;17.13;2.47;;;;;;;2.07;62.71;101176.47;6209381;23;20023;-72
2022/12/27 01:32:57;;;;;;;17.35;2.25;;;;;;;2.29;62.96;101190.09;6210562;23;20370;-71
2022/12/27 01:35:23;;;;;;;18.00;2.50;;;;;;;2.37;63.53;101190.47;6209436;23;20100;-71
2022/12/27 01:37:50;;;;;;;20.83;2.42;;;;;;;2.13;63.62;101187.53;6210442;23;20028;-71
2022/12/27 01:40:17;;;;;;;16.33;2.25;;;;;;;2.28;63.19;101184.91;6209813;23;20020;-71
2022/12/27 01:42:54;;;;;;;15.00;2.17;;;;;;;2.14;63.66;101191.88;6210839;23;20096;-72
2022/12/27 01:45:23;;;;;;;15.90;2.28;;;;;;;2.27;63.99;101189.34;6210380;23;20025;-72
2022/12/27 01:48:00;;;;;;;16.55;2.58;;;;;;;2.24;63.38;101181.59;6210885;23;20028;-72
2022/12/27 01:50:29;;;;;;;17.73;2.65;;;;;;;2.28;63.10;101191.03;6210012;23;20421;-72
2022/12/27 01:52:56;;;;;;;22.75;2.25;;;;;;;2.19;64.06;101196.88;6211227;23;20035;-72
2022/12/27 01:55:37;;;;;;;18.35;2.58;;;;;;;2.32;63.78;101197.00;6210040;23;20025;-72
2022/12/27 01:58:10;;;;;;;19.40;2.60;;;;;;;2.31;63.73;101198.78;6211089;23;20020;-72
2022/12/27 02:00:40;;;;;;;18.52;3.25;;;;;;;2.06;63.83;101212.69;6210096;23;20426;-72
2022/12/27 02:03:06;;;;;;;23.45;2.35;;;;;;;2.04;64.37;101205.78;6210500;23;20412;-72
2022/12/27 02:09:40;;;;;;;23.30;2.55;;;;;;;2.02;64.29;101208.50;6209482;23;20350;-71
2022/12/27 02:12:09;;;;;;;23.63;2.63;;;;;;;1.89;64.61;101208.38;6209963;23;20103;-71
2022/12/27 02:14:44;;;;;;;26.73;2.55;;;;;;;1.87;64.29;101210.25;6208617;23;20075;-71
2022/12/27 02:17:24;;;;;;;25.23;3.28;;;;;;;1.94;64.44;101206.31;6209262;23;20021;-70
2022/12/27 02:20:03;;;;;;;10.13;1.80;;;;;;;1.89;64.13;101221.59;6211039;23;20025;-71
2022/12/27 02:25:49;;;;;;;14.48;2.58;;;;;;;1.89;64.60;101226.06;6209654;23;20024;-71
2022/12/27 02:28:52;;;;;;;20.30;2.35;;;;;;;1.86;65.09;101235.00;6210844;23;20078;-71
2022/12/27 02:31:42;;;;;;;17.45;2.30;;;;;;;1.91;64.37;101224.16;6212274;23;20066;-71
2022/12/27 02:34:23;;;;;;;17.17;2.40;;;;;;;1.82;64.50;101229.97;6093625;23;20096;-71
2022/12/27 02:36:55;;;;;;;17.33;2.33;;;;;;;1.79;64.95;101231.03;6153003;23;20041;-71
2022/12/27 02:39:22;;;;;;;25.23;3.25;;;;;;;1.94;64.67;101231.94;6152308;23;20026;-71
2022/12/27 02:53:25;;;;;;;17.63;2.53;;;;;;;1.93;64.22;101257.56;6152898;23;20311;-72
2022/12/27 02:59:37;;;;;;;25.20;3.85;;;;;;;1.62;64.99;101261.13;6152911;23;20040;-71
2022/12/27 03:05:24;;;;;;;21.77;2.60;;;;;;;1.67;65.28;101261.69;6146840;23;20044;-71
2022/12/27 03:08:20;;;;;;;13.00;2.17;;;;;;;1.63;65.65;101265.47;6152316;23;20336;-71
2022/12/27 03:16:57;;;;;;;21.98;3.00;;;;;;;1.52;65.53;101265.22;6145481;23;20028;-72
2022/12/27 03:34:03;;;;;;;15.63;2.63;;;;;;;1.32;66.15;101271.66;6204356;23;20107;-70
2022/12/27 03:39:25;;;;;;;14.82;2.03;;;;;;;1.47;65.91;101273.44;6194187;23;20031;-71
2022/12/27 03:44:47;;;;;;;15.65;2.10;;;;;;;1.47;65.88;101281.38;6196811;23;20513;-71
2022/12/27 03:47:33;;;;;;;15.32;2.33;;;;;;;1.31;65.98;101274.41;6194512;23;20362;-71
2022/12/27 03:50:24;;;;;;;16.55;1.92;;;;;;;1.47;65.96;101276.09;6195800;23;20345;-70
2022/12/27 03:52:59;;;;;;;20.53;3.20;;;;;;;1.45;66.36;101290.31;6212609;23;20107;-70
2022/12/27 03:55:26;;;;;;;17.10;2.50;;;;;;;1.39;66.02;101283.59;6212928;23;20095;-71
2022/12/27 03:57:59;;;;;;;15.48;2.38;;;;;;;1.35;66.57;101284.69;6212657;23;20074;-72
2022/12/27 04:00:26;;;;;;;10.82;1.92;;;;;;;1.44;65.59;101280.69;6211775;23;20026;-71
2022/12/27 04:02:53;;;;;;;15.85;2.28;;;;;;;1.38;65.91;101287.19;6212179;23;20052;-71
2022/12/27 04:05:20;;;;;;;24.38;2.95;;;;;;;1.43;65.97;101284.25;6212026;23;20021;-71
2022/12/27 04:35:15;;;;;;;8.98;1.92;;;;;;;1.31;65.48;101288.47;6211211;23;20040;-70
2022/12/27 04:37:42;;;;;;;15.07;2.05;;;;;;;1.23;65.65;101283.63;6211309;23;20044;-69
2022/12/27 04:56:42;;;;;;;19.83;2.80;;;;;;;1.19;65.97;101313.78;6211566;23;20032;-69
2022/12/27 05:02:03;;;;;;;15.25;2.53;;;;;;;1.23;65.27;101304.75;6210640;23;20029;-70
2022/12/27 05:04:31;;;;;;;14.65;2.40;;;;;;;1.39;65.62;101296.81;6211704;23;20051;-70
2022/12/27 05:13:58;;;;;;;18.25;2.67;;;;;;;1.29;64.90;101292.97;6210300;23;20103;-71
2022/12/27 05:15:23;;;;;;;12.55;2.53;;;;;;;1.32;64.82;101290.16;6211089;23;20020;-71
2022/12/27 05:17:49;;;;;;;14.73;2.60;;;;;;;1.28;65.31;101291.28;6210453;23;20035;-71
2022/12/27 05:20:16;;;;;;;10.68;2.03;;;;;;;1.33;64.74;101291.00;6211107;23;20024;-70
2022/12/27 05:25:33;;;;;;;13.57;2.17;;;;;;;1.31;64.66;101304.31;6210491;23;20048;-72
2022/12/27 05:28:04;;;;;;;21.00;3.00;;;;;;;1.18;64.52;101312.06;6211448;23;20025;-72
2022/12/27 05:30:39;;;;;;;12.95;2.00;;;;;;;1.10;65.02;101311.66;6212375;23;20030;-70
2022/12/27 05:33:06;;;;;;;8.27;1.90;;;;;;;1.17;64.98;101317.47;6210544;23;20024;-71
2022/12/27 05:35:33;;;;;;;15.82;2.92;;;;;;;1.24;64.43;101316.19;6211128;23;20020;-71
2022/12/27 05:38:00;;;;;;;11.27;1.88;;;;;;;1.44;64.37;101315.06;6210863;23;20059;-70
2022/12/27 05:40:27;;;;;;;14.23;1.65;;;;;;;1.42;64.30;101331.00;6210172;23;20402;-70
2022/12/27 05:42:53;;;;;;;13.77;2.22;;;;;;;1.28;64.40;101330.94;6210979;23;20046;-70
2022/12/27 05:45:20;;;;;;;12.13;2.00;;;;;;;1.40;64.80;101330.25;6198303;23;20020;-70
2022/12/27 05:47:46;;;;;;;12.68;2.20;;;;;;;1.38;64.38;101325.97;6233887;23;20517;-70
2022/12/27 05:50:13;;;;;;;12.60;1.83;;;;;;;1.20;64.68;101333.16;6212841;23;20027;-71
2022/12/27 05:52:39;;;;;;;8.52;2.00;;;;;;;1.37;64.50;101338.34;6211277;23;20020;-70
2022/12/27 05:55:07;;;;;;;16.73;2.08;;;;;;;1.43;63.94;101332.69;6210305;23;20021;-70
2022/12/27 05:57:34;;;;;;;12.68;2.10;;;;;;;1.34;64.12;101335.03;6211638;23;20257;-70
2022/12/27 06:00:00;;;;;;;16.90;2.00;;;;;;;1.31;64.73;101336.03;6210440;23;20031;-72
2022/12/27 06:02:27;;;;;;;12.63;2.22;;;;;;;1.29;64.67;101337.91;6209919;23;20146;-72
2022/12/27 06:04:54;;;;;;;9.15;1.60;;;;;;;1.20;64.48;101347.22;6212083;23;20025;-71
2022/12/27 06:07:20;;;;;;;9.85;1.92;;;;;;;1.36;64.73;101357.78;6211707;23;20024;-72
2022/12/27 06:09:47;;;;;;;9.25;1.75;;;;;;;1.18;64.83;101349.06;6212833;23;20104;-70
2022/12/27 06:12:14;;;;;;;15.25;1.60;;;;;;;1.23;65.01;101356.78;6213175;23;20099;-70
2022/12/27 06:14:40;;;;;;;7.80;1.50;;;;;;;1.28;64.96;101360.00;6212900;23;20016;-72
2022/12/27 06:17:07;;;;;;;13.65;1.95;;;;;;;1.11;65.16;101358.28;6212807;23;20029;-72
2022/12/27 06:19:33;;;;;;;19.60;2.10;;;;;;;1.19;65.22;101361.34;6211907;23;20099;-72
2022/12/27 06:22:00;;;;;;;15.18;2.00;;;;;;;1.28;64.97;101357.34;6212720;23;20021;-72
2022/12/27 06:24:27;;;;;;;12.45;2.00;;;;;;;1.12;65.39;101356.47;6212900;23;20359;-72
2022/12/27 06:26:53;;;;;;;20.50;2.38;;;;;;;1.12;65.25;101367.06;6204641;23;20028;-70
2022/12/27 06:29:20;;;;;;;12.95;2.17;;;;;;;1.18;65.37;101361.44;6211129;23;20379;-70
2022/12/27 06:31:47;;;;;;;5.75;1.67;;;;;;;1.25;65.44;101371.59;6203842;23;20021;-70
2022/12/27 06:34:13;;;;;;;11.80;1.80;;;;;;;1.18;65.11;101367.56;6213062;23;20021;-70
2022/12/27 06:36:40;;;;;;;17.15;2.08;;;;;;;0.95;66.00;101375.88;6212451;23;20108;-70
2022/12/27 06:39:06;;;;;;;14.30;1.98;;;;;;;1.06;65.45;101372.66;6212044;23;20063;-71
2022/12/27 06:41:33;;;;;;;8.63;1.63;;;;;;;1.14;65.61;101378.41;6212427;23;20025;-71
2022/12/27 06:43:59;;;;;;;11.80;2.08;;;;;;;0.94;65.64;101384.75;6212930;23;20100;-70
2022/12/27 06:46:26;;;;;;;13.15;2.13;;;;;;;0.98;65.70;101392.44;6211391;23;20409;-70
2022/12/27 06:48:52;;;;;;;18.95;2.60;;;;;;;0.84;66.23;101381.75;6213740;23;20020;-71
2022/12/27 06:51:20;;;;;;;13.68;2.38;;;;;;;0.92;65.72;101387.50;6213734;23;20032;-70
2022/12/27 06:53:48;;;;;;;8.68;1.88;;;;;;;1.15;65.58;101385.38;6212526;23;20099;-70
2022/12/27 06:56:20;;;;;;;17.30;2.10;;;;;;;1.11;65.76;101386.50;6212885;23;20509;-69
2022/12/27 06:58:49;;;;;;;13.52;3.30;;;;;;;1.11;65.78;101386.50;6212700;23;20025;-69
2022/12/27 07:01:20;;;;;;;17.52;2.85;;;;;;;1.02;65.86;101382.53;6213921;23;20346;-69
2022/12/27 07:03:51;;;;;;;15.00;2.70;;;;;;;1.03;65.86;101396.63;6213384;23;20472;-70
2022/12/27 07:06:18;;;;;;;14.65;2.53;;;;;;;1.10;65.43;101390.09;6212376;23;20025;-71
2022/12/27 07:08:46;;;;;;;10.27;2.70;;;;;;;0.93;65.87;101394.47;6213346;23;20361;-70
2022/12/27 07:11:13;;;;;;;14.02;2.08;;;;;;;1.00;65.79;101395.00;6212247;23;20020;-71
2022/12/27 07:13:45;;;;;;;13.52;2.45;;;;;;;1.03;65.78;101401.91;6220450;23;20039;-71
2022/12/27 07:16:13;;;;;;;15.13;2.65;;;;;;;0.88;66.04;101407.06;6212811;23;20020;-72
2022/12/27 07:18:40;;;;;;;7.20;2.08;;;;;;;1.17;64.94;101404.66;6211257;23;20028;-70
2022/12/27 07:21:19;;;;;;;14.43;2.60;;;;;;;1.08;65.39;101405.16;6211821;23;20104;-71
2022/12/27 07:23:45;;;;;;;18.80;2.47;;;;;;;1.28;65.11;101415.50;6207547;23;20107;-70
2022/12/27 07:26:21;;;;;;;12.70;2.03;;;;;;;1.09;65.12;101420.06;6211728;23;20024;-71
2022/12/27 07:28:48;;;;;;;19.40;3.30;;;;;;;1.07;65.38;101424.59;6211706;23;20477;-71
2022/12/27 07:31:19;;;;;;;15.32;2.55;;;;;;;1.05;65.65;101418.53;6209749;23;20024;-71
2022/12/27 07:33:46;;;;;;;11.43;2.38;;;;;;;1.03;65.63;101425.69;6221404;23;20493;-70
2022/12/27 07:36:15;;;;;;;10.15;1.80;;;;;;;1.30;64.87;101434.78;6210567;23;20024;-71
2022/12/27 07:38:43;;;;;;;11.23;2.15;;;;;;;1.17;64.86;101429.31;6211411;23;20020;-70
2022/12/27 07:41:11;;;;;;;12.93;1.98;;;;;;;1.07;65.30;101440.44;6211757;23;20096;-70
2022/12/27 07:43:38;;;;;;;19.52;2.70;;;;;;;1.23;64.88;101434.28;6211439;23;20023;-70
2022/12/27 07:46:07;;;;;;;10.38;2.10;;;;;;;1.26;64.31;101433.22;6210259;23;20502;-70
2022/12/27 07:48:35;;;;;;;11.15;2.65;;;;;;;1.21;64.88;101444.06;6212512;23;20020;-70
2022/12/27 07:51:02;;;;;;;8.10;2.50;;;;;;;1.56;63.91;101451.03;6212644;23;20361;-70
2022/12/27 07:53:29;;;;;;;11.98;2.45;;;;;;;1.51;64.44;101450.41;6211647;23;20020;-71
2022/12/27 07:55:56;;;;;;;12.15;2.10;;;;;;;1.42;64.44;101449.13;6212451;23;20484;-70
2022/12/27 07:58:23;;;;;;;11.82;1.98;;;;;;;1.45;64.18;101460.41;6203359;23;20024;-69
2022/12/27 08:00:51;;;;;;;14.77;2.28;;;;;;;1.47;64.11;101453.25;6213315;23;20031;-71
2022/12/27 08:03:18;;;;;;;13.20;2.05;;;;;;;1.50;64.57;101446.91;6213022;23;20099;-71
2022/12/27 08:05:51;;;;;;;14.07;2.42;;;;;;;1.38;63.79;101447.59;6210530;23;20028;-71
2022/12/27 08:08:22;;;;;;;10.82;2.10;;;;;;;1.55;63.92;101452.81;6213269;23;20454;-71
2022/12/27 08:10:48;;;;;;;21.77;2.42;;;;;;;1.51;64.42;101450.41;6213055;23;20413;-71
2022/12/27 08:13:15;;;;;;;8.25;2.08;;;;;;;1.46;64.47;101456.81;6211734;23;20017;-71
2022/12/27 08:15:42;;;;;;;11.18;1.77;;;;;;;1.55;64.56;101455.47;6212003;23;20020;-70
2022/12/27 08:18:09;;;;;;;12.15;1.67;;;;;;;1.46;64.15;101456.81;6212399;23;20017;-70
2022/12/27 08:20:36;;;;;;;8.45;2.72;;;;;;;1.62;63.83;101466.56;6212372;23;20096;-69
2022/12/27 08:23:02;;;;;;;14.80;2.70;;;;;;;1.52;64.12;101471.50;6212228;23;20020;-71
2022/12/27 08:25:29;;;;;;;11.75;1.92;;;;;;;1.61;63.79;101470.13;6211529;23;20100;-71
2022/12/27 08:28:11;;;;;;;16.42;2.45;;;;;;;1.58;63.98;101473.81;6211055;23;20023;-70
2022/12/27 08:30:39;;;;;;;9.02;1.75;;;;;;;1.70;64.32;101477.56;6212340;23;20013;-70
2022/12/27 08:33:06;;;;;;;20.25;1.92;;;;;;;1.78;64.01;101472.69;6211801;23;20104;-71
2022/12/27 08:35:40;;;;;;;19.20;2.80;;;;;;;1.65;64.28;101471.69;6213002;23;20021;-70
2022/12/27 08:38:19;;;;;;;10.13;1.67;;;;;;;1.70;64.21;101465.19;6212577;23;20108;-71
2022/12/27 08:40:45;;;;;;;15.65;2.38;;;;;;;1.74;64.23;101468.50;6203034;23;20020;-71
2022/12/27 08:43:13;;;;;;;7.65;1.92;;;;;;;1.83;64.05;101467.16;6231050;23;20382;-72
2022/12/27 08:45:39;;;;;;;13.32;2.40;;;;;;;1.81;63.42;101469.88;6213106;23;20020;-70
2022/12/27 08:48:06;;;;;;;16.58;2.53;;;;;;;1.89;63.52;101469.47;6213738;23;20023;-70
2022/12/27 08:50:33;;;;;;;15.15;2.40;;;;;;;1.98;63.04;101468.97;6210068;23;20027;-70
2022/12/27 08:53:02;;;;;;;14.35;2.33;;;;;;;1.98;63.67;101484.00;6212279;23;20040;-70
2022/12/27 08:55:29;;;;;;;8.38;2.33;;;;;;;1.82;63.62;101478.66;6212965;23;20075;-70
2022/12/27 08:58:04;;;;;;;6.97;1.70;;;;;;;1.82;63.41;101484.84;6213189;23;20438;-70
2022/12/27 09:00:39;;;;;;;13.68;2.00;;;;;;;2.02;63.53;101482.88;6212536;23;20016;-71
2022/12/27 09:03:05;;;;;;;13.15;2.08;;;;;;;1.92;63.95;101490.44;6213257;23;20031;-70
2022/12/27 09:05:32;;;;;;;14.07;2.55;;;;;;;1.92;63.49;101495.75;6213456;23;20393;-70
2022/12/27 09:08:06;;;;;;;10.38;2.05;;;;;;;1.85;63.66;101489.09;6211631;23;20031;-70
2022/12/27 09:10:33;;;;;;;11.80;2.10;;;;;;;1.89;63.55;101491.50;6212536;23;20095;-70
2022/12/27 09:12:59;;;;;;;10.50;1.70;;;;;;;1.99;63.73;101483.91;6213106;23;20414;-71
2022/12/27 09:15:26;;;;;;;14.70;2.70;;;;;;;2.21;63.26;101494.16;6214727;23;20345;-70
2022/12/27 09:17:54;;;;;;;7.07;2.42;;;;;;;2.22;63.20;101487.91;6203668;23;20020;-71
2022/12/27 09:20:20;;;;;;;10.13;2.20;;;;;;;2.27;62.85;101487.63;6214136;23;20020;-71
2022/12/27 09:22:47;;;;;;;16.55;2.70;;;;;;;2.04;63.96;101488.97;6214287;23;20458;-70
2022/12/27 09:25:13;;;;;;;12.63;2.00;;;;;;;2.15;63.56;101487.41;6213053;23;20457;-70
2022/12/27 09:27:40;;;;;;;10.45;2.00;;;;;;;2.30;63.00;101492.75;6214533;23;20075;-70
2022/12/27 09:30:08;;;;;;;10.63;2.10;;;;;;;2.28;63.22;101490.22;6201204;23;20100;-70
2022/12/27 09:32:34;;;;;;;12.15;2.17;;;;;;;2.45;62.69;101489.25;6233145;23;20229;-70
2022/12/27 09:35:02;;;;;;;12.75;2.05;;;;;;;2.70;62.33;101499.25;6213228;23;20032;-70
2022/12/27 09:37:28;;;;;;;15.75;2.13;;;;;;;2.34;62.90;101495.16;6211982;23;20016;-71
2022/12/27 09:39:55;;;;;;;10.55;2.25;;;;;;;2.31;63.28;101491.84;6213893;23;20018;-72
2022/12/27 09:43:00;;;;;;;13.02;2.50;;;;;;;2.44;62.63;101484.88;6214324;23;20124;-71
2022/12/27 09:45:49;;;;;;;12.40;2.63;;;;;;;2.50;62.58;101497.75;6183672;23;20032;-70
2022/12/27 09:48:31;;;;;;;11.52;2.17;;;;;;;2.86;61.82;101499.22;6211562;23;20378;-70
2022/12/27 09:51:05;;;;;;;14.25;2.50;;;;;;;3.02;61.12;101517.69;6222986;23;20031;-71
2022/12/27 09:53:45;;;;;;;8.70;2.03;;;;;;;2.95;60.99;101519.00;6214263;23;20073;-71
2022/12/27 09:56:16;;;;;;;6.07;1.90;;;;;;;3.10;60.95;101508.34;6214427;23;20020;-70
2022/12/27 09:58:51;;;;;;;13.32;2.28;;;;;;;3.22;60.74;101512.03;6205209;23;20029;-70
2022/12/27 10:01:22;;;;;;;12.02;2.38;;;;;;;3.81;59.40;101514.59;6211660;23;20043;-70
2022/12/27 10:03:50;;;;;;;17.98;2.60;;;;;;;4.01;59.01;101508.03;6215089;23;20115;-70
2022/12/27 10:06:19;;;;;;;10.63;2.10;;;;;;;4.15;58.00;101505.31;6214873;23;20028;-70
2022/12/27 10:09:21;;;;;;;9.23;2.90;;;;;;;4.66;57.29;101502.00;6214984;23;20526;-71
2022/12/27 10:12:08;;;;;;;10.55;2.28;;;;;;;4.71;56.89;101506.06;6215145;23;20031;-70
2022/12/27 10:14:54;;;;;;;7.45;2.50;;;;;;;4.24;57.72;101504.75;6209485;23;20099;-70
2022/12/27 10:17:58;;;;;;;10.13;2.58;;;;;;;4.71;57.20;101516.69;6229160;23;20048;-71
2022/12/27 10:20:52;;;;;;;8.25;2.17;;;;;;;4.67;56.78;101491.28;6216384;23;20051;-70
2022/12/27 10:23:23;;;;;;;11.70;2.38;;;;;;;4.33;58.53;101490.84;6216590;23;20027;-70
2022/12/27 10:26:00;;;;;;;13.97;2.90;;;;;;;4.32;57.64;101497.09;6216124;23;20023;-71
2022/12/27 10:28:37;;;;;;;10.95;2.30;;;;;;;4.40;58.02;101495.78;6217994;23;20020;-71
2022/12/27 10:31:04;;;;;;;13.57;2.45;;;;;;;3.95;59.53;101495.13;6217824;23;20100;-71
2022/12/27 10:33:33;;;;;;;8.43;2.38;;;;;;;3.68;60.20;101513.66;6213442;23;20024;-71
2022/12/27 10:36:08;;;;;;;10.13;2.47;;;;;;;3.69;60.35;101524.19;6218929;23;20017;-69
2022/12/27 10:38:35;;;;;;;8.50;2.05;;;;;;;3.59;60.26;101525.72;6219825;23;20047;-71
2022/12/27 10:41:37;;;;;;;16.27;2.53;;;;;;;3.85;60.19;101524.91;6220211;23;20032;-70
2022/12/27 10:44:10;;;;;;;11.27;2.60;;;;;;;4.01;59.78;101526.59;6171475;23;20026;-69
2022/12/27 10:46:37;;;;;;;11.00;2.45;;;;;;;3.83;59.99;101534.78;6217822;23;20027;-72
2022/12/27 10:49:18;;;;;;;5.18;1.63;;;;;;;4.17;59.47;101535.28;6218737;23;20020;-70
2022/12/27 10:51:48;;;;;;;13.63;2.63;;;;;;;4.26;59.09;101540.00;6221979;23;20171;-71
2022/12/27 10:54:21;;;;;;;7.82;2.08;;;;;;;4.07;60.02;101548.31;6221667;23;20120;-71
2022/12/27 10:56:47;;;;;;;8.30;2.20;;;;;;;4.01;60.22;101543.38;6221892;23;20024;-71
2022/12/27 10:59:18;;;;;;;7.68;2.20;;;;;;;3.47;61.36;101539.72;6221312;23;20031;-70
2022/12/27 11:01:58;;;;;;;9.40;2.05;;;;;;;3.45;61.32;101544.25;6221319;23;20021;-72
2022/12/27 11:04:25;;;;;;;15.23;3.42;;;;;;;3.53;61.87;101549.97;6219075;23;20508;-71
2022/12/27 11:06:58;;;;;;;8.32;2.42;;;;;;;3.43;62.12;101551.47;6219893;23;20035;-72
2022/12/27 11:09:40;;;;;;;15.73;2.72;;;;;;;3.53;61.64;101548.16;6221597;23;20020;-71
2022/12/27 11:12:23;;;;;;;11.40;3.15;;;;;;;3.68;61.48;101554.31;6220754;23;20044;-69
2022/12/27 11:14:55;;;;;;;12.10;2.60;;;;;;;3.24;62.50;101552.59;6218841;23;20046;-72
2022/12/27 11:17:44;;;;;;;16.33;3.20;;;;;;;3.44;62.19;101551.34;6215186;23;20056;-72
2022/12/27 11:20:13;;;;;;;13.85;2.65;;;;;;;3.36;62.27;101556.28;6217397;23;20076;-70
2022/12/27 11:23:00;;;;;;;19.90;2.53;;;;;;;3.28;62.41;101563.88;6219018;23;20022;-70
2022/12/27 11:25:28;;;;;;;10.82;2.75;;;;;;;3.34;62.24;101564.34;6219663;23;20037;-71
2022/12/27 11:28:02;;;;;;;15.77;2.67;;;;;;;3.37;62.60;101555.34;6219046;23;20025;-71
2022/12/27 11:30:32;;;;;;;19.95;2.63;;;;;;;3.33;62.41;101567.94;6218389;23;20040;-70
2022/12/27 11:33:04;;;;;;;10.15;3.03;;;;;;;3.52;62.50;101569.47;6219522;23;20191;-70
2022/12/27 11:35:43;;;;;;;14.15;4.50;;;;;;;3.63;61.79;101572.31;6219757;23;20021;-71
2022/12/27 11:38:29;;;;;;;15.68;3.45;;;;;;;3.50;62.58;101576.66;6220125;23;20017;-68
2022/12/27 11:41:02;;;;;;;15.40;3.88;;;;;;;3.53;62.23;101582.66;6217955;23;20048;-72
2022/12/27 11:43:35;;;;;;;15.40;2.85;;;;;;;3.46;62.69;101577.81;6216719;23;20021;-72
2022/12/27 11:46:09;;;;;;;8.07;2.50;;;;;;;3.62;62.34;101575.94;6216817;23;20123;-71
2022/12/27 11:48:41;;;;;;;10.68;3.00;;;;;;;3.66;61.90;101574.78;6212933;23;20020;-71
2022/12/27 11:51:19;;;;;;;;;;;;;;;3.58;62.04;101583.19;6216681;23;20020;-71
2022/12/27 11:53:54;;;;;;;14.85;3.10;;;;;;;3.55;61.94;101571.94;6199604;23;19930;-70
2022/12/27 11:56:36;;;;;;;13.40;2.70;;;;;;;3.76;61.20;101569.75;6202847;23;20032;-70
2022/12/27 11:59:03;;;;;;;11.43;2.67;;;;;;;3.44;62.24;101556.66;6200682;23;20077;-71
2022/12/27 12:01:42;;;;;;;23.75;3.13;;;;;;;3.59;61.52;101576.13;6202038;23;20974;-70
2022/12/27 12:04:37;;;;;;;17.48;3.45;;;;;;;3.30;62.79;101562.81;6207371;23;20024;-68
2022/12/27 12:07:16;;;;;;;15.23;2.45;;;;;;;3.37;62.11;101569.44;6199882;23;20437;-70
2022/12/27 12:09:48;;;;;;;13.00;2.60;;;;;;;3.56;61.64;101558.59;6204252;23;20028;-70
2022/12/27 12:12:20;;;;;;;15.15;3.33;;;;;;;3.28;62.17;101564.72;6201199;23;20100;-71
2022/12/27 12:15:22;;;;;;;10.05;2.47;;;;;;;3.17;62.09;101559.22;6206030;23;20218;-70
2022/12/27 12:18:16;;;;;;;11.30;2.88;;;;;;;3.29;62.31;101571.72;6200990;23;20021;-70
2022/12/27 12:20:58;;;;;;;16.58;2.95;;;;;;;3.66;61.39;101569.50;6202231;23;20024;-70
2022/12/27 12:23:24;;;;;;;16.23;2.67;;;;;;;3.42;61.26;101577.16;6198745;23;20391;-70
2022/12/27 12:26:19;;;;;;;16.88;3.47;;;;;;;3.99;60.69;101581.59;6196415;23;20084;-71
2022/12/27 12:28:57;;;;;;;11.05;2.08;;;;;;;4.04;60.19;101574.22;6216752;23;20016;-70
2022/12/27 12:31:54;;;;;;;13.23;3.47;;;;;;;4.11;60.00;101578.19;6216040;23;20020;-71
2022/12/27 12:34:36;;;;;;;22.05;3.35;;;;;;;3.84;60.45;101578.09;6185518;23;20056;-71
2022/12/27 12:37:16;;;;;;;14.15;2.55;;;;;;;3.72;60.17;101585.00;6187177;23;20072;-70
2022/12/27 12:40:26;;;;;;;12.98;2.03;;;;;;;3.72;60.64;101590.31;6217757;23;20048;-70
2022/12/27 12:43:16;;;;;;;12.90;3.15;;;;;;;3.75;60.64;101592.78;6198315;23;20477;-70
2022/12/27 12:46:09;;;;;;;8.48;2.33;;;;;;;4.23;59.17;101589.81;6215739;23;20039;-70
2022/12/27 12:49:15;;;;;;;11.05;2.85;;;;;;;4.21;59.08;101597.88;6220791;23;20024;-71
2022/12/27 12:52:19;;;;;;;10.73;2.50;;;;;;;4.50;58.80;101593.38;6220522;23;20122;-70
2022/12/27 12:55:04;;;;;;;15.40;3.08;;;;;;;4.29;58.64;101587.63;6227086;23;20031;-71
2022/12/27 12:57:43;;;;;;;13.52;2.08;;;;;;;4.66;57.47;101590.59;6226661;23;20032;-70
2022/12/27 13:00:40;;;;;;;12.38;2.92;;;;;;;4.88;57.19;101595.34;6227574;23;20024;-71
2022/12/27 13:03:22;;;;;;;11.13;2.67;;;;;;;4.77;57.25;101597.84;6229429;23;20081;-71
2022/12/27 13:05:58;;;;;;;15.20;3.47;;;;;;;5.02;56.30;101599.72;6225786;23;20032;-72
2022/12/27 13:08:42;;;;;;;17.13;2.53;;;;;;;4.31;58.39;101601.66;6223635;23;20071;-69
2022/12/27 13:11:54;;;;;;;7.40;2.45;;;;;;;4.23;58.65;101597.78;6219716;23;20031;-71
2022/12/27 13:14:58;;;;;;;19.42;2.97;;;;;;;4.23;58.30;101598.63;6219456;23;20019;-70
2022/12/27 13:18:09;;;;;;;15.50;2.88;;;;;;;4.27;58.07;101608.09;6175365;23;20047;-72
2022/12/27 13:20:59;;;;;;;18.20;2.83;;;;;;;4.01;59.09;101620.38;6169251;23;20043;-72
2022/12/27 13:23:31;;;;;;;9.57;2.42;;;;;;;4.06;58.94;101620.09;6222243;23;20020;-70
2022/12/27 13:26:29;;;;;;;15.45;3.08;;;;;;;4.00;58.69;101621.34;6224045;23;20060;-71
2022/12/27 13:29:22;;;;;;;19.85;3.38;;;;;;;3.92;58.97;101618.28;6221350;23;20108;-71
2022/12/27 13:32:09;;;;;;;20.13;3.03;;;;;;;3.99;58.50;101629.38;6220617;23;20029;-71
2022/12/27 13:34:36;;;;;;;11.27;2.40;;;;;;;3.90;59.04;101619.31;6222266;23;20016;-71
2022/12/27 13:37:29;;;;;;;15.90;2.40;;;;;;;3.67;59.18;101621.59;6221530;23;20025;-71
2022/12/27 13:40:23;;;;;;;12.68;2.20;;;;;;;4.01;58.17;101625.69;6217055;23;20457;-70
2022/12/27 13:43:27;;;;;;;17.33;2.70;;;;;;;4.26;57.78;101632.13;6217845;23;20081;-71